Time;durP1;ratioP1;P1;durP2;ratioP2;P2;SDS_P1;SDS_P2;PMS_P1;PMS_P2;Temp;Humidity;BMP_temperature;BMP_pressure;BME280_temperature;BME280_humidity;BME280_pressure;Samples;Min_cycle;Max_cycle;Signal;HPM_P1;HPM_P2
2021/12/02 00:01:57;;;;;;;13.77;2.20;;;;;;;;;;5052771;27;95260;-74
2021/12/02 00:04:26;;;;;;;6.95;1.85;;;;;;;;;;5051088;27;96853;-74
2021/12/02 00:06:52;;;;;;;13.63;2.47;;;;;;;;;;5052536;27;97410;-74
2021/12/02 00:09:19;;;;;;;8.98;2.08;;;;;;;;;;5013421;28;95184;-75
2021/12/02 00:11:45;;;;;;;12.20;1.85;;;;;;;;;;5012057;28;97782;-74
2021/12/02 00:14:13;;;;;;;10.57;1.98;;;;;;;;;;5011383;28;95325;-74
2021/12/02 00:16:51;;;;;;;13.25;1.65;;;;;;;;;;5012129;28;97254;-75
2021/12/02 00:22:03;;;;;;;5.43;1.30;;;;;;;;;;5011824;28;95211;-75
2021/12/02 00:24:34;;;;;;;7.50;1.50;;;;;;;;;;5011760;28;95544;-75
2021/12/02 00:27:03;;;;;;;9.35;1.25;;;;;;;;;;5012788;28;97813;-76
2021/12/02 00:29:31;;;;;;;9.00;1.38;;;;;;;;;;5012423;28;95457;-75
2021/12/02 00:32:01;;;;;;;5.25;1.30;;;;;;;;;;5017285;28;96903;-75
2021/12/02 00:34:27;;;;;;;5.13;1.40;;;;;;;;;;5015010;28;95420;-76
2021/12/02 00:36:56;;;;;;;5.05;1.20;;;;;;;;;;5015139;28;97119;-75
2021/12/02 00:39:22;;;;;;;6.55;1.63;;;;;;;;;;5014434;28;97385;-75
2021/12/02 00:41:49;;;;;;;7.97;1.88;;;;;;;;;;5015924;28;95475;-75
2021/12/02 00:44:16;;;;;;;7.50;2.10;;;;;;;;;;5014487;28;96844;-75
2021/12/02 00:46:44;;;;;;;4.22;1.67;;;;;;;;;;5014717;28;97426;-75
2021/12/02 00:49:13;;;;;;;6.80;1.80;;;;;;;;;;5014463;28;95616;-75
2021/12/02 00:51:40;;;;;;;9.50;1.98;;;;;;;;;;5018446;28;96825;-75
2021/12/02 00:54:08;;;;;;;9.55;1.98;;;;;;;;;;5014474;28;95312;-75
2021/12/02 00:56:34;;;;;;;7.45;1.52;;;;;;;;;;5013029;28;96764;-74
2021/12/02 00:59:01;;;;;;;6.80;1.60;;;;;;;;;;5014507;28;97455;-75
2021/12/02 01:01:33;;;;;;;5.25;1.30;;;;;;;;;;5013965;28;95284;-74
2021/12/02 01:03:59;;;;;;;;;;;;;;;;;;5015477;28;96756;-74
2021/12/02 01:06:26;;;;;;;4.22;1.42;;;;;;;;;;5013542;28;127402;-73
2021/12/02 01:08:53;;;;;;;3.70;1.73;;;;;;;;;;5047046;27;96003;-74
2021/12/02 01:11:20;;;;;;;3.78;1.48;;;;;;;;;;5054216;27;96762;-74
2021/12/02 01:13:47;;;;;;;6.70;1.30;;;;;;;;;;5058659;27;97368;-74
2021/12/02 01:16:13;;;;;;;5.15;1.30;;;;;;;;;;5055214;27;96862;-72
2021/12/02 01:18:40;;;;;;;6.60;1.20;;;;;;;;;;5054317;27;97311;-74
2021/12/02 01:21:07;;;;;;;5.68;1.25;;;;;;;;;;5055017;27;95188;-74
2021/12/02 01:23:33;;;;;;;7.43;1.20;;;;;;;;;;5055104;27;96870;-75
2021/12/02 01:26:02;;;;;;;5.25;1.40;;;;;;;;;;5053291;27;97353;-74
2021/12/02 01:28:29;;;;;;;4.55;1.10;;;;;;;;;;5054033;27;95462;-74
2021/12/02 01:30:56;;;;;;;4.90;1.23;;;;;;;;;;5055251;27;96785;-73
2021/12/02 01:33:23;;;;;;;7.20;1.58;;;;;;;;;;5054400;27;97296;-74
2021/12/02 01:35:50;;;;;;;7.55;1.58;;;;;;;;;;5058243;27;95244;-74
2021/12/02 01:38:17;;;;;;;9.13;1.30;;;;;;;;;;5054235;27;97491;-74
2021/12/02 01:40:44;;;;;;;6.82;1.45;;;;;;;;;;5053893;27;95508;-75
2021/12/02 01:43:15;;;;;;;3.30;1.20;;;;;;;;;;5054572;27;96616;-75
2021/12/02 01:45:41;;;;;;;5.15;1.40;;;;;;;;;;5054250;27;96058;-73
2021/12/02 01:48:14;;;;;;;7.20;1.55;;;;;;;;;;5053941;27;95456;-74
2021/12/02 01:50:42;;;;;;;12.10;1.67;;;;;;;;;;5054886;27;97262;-73
2021/12/02 01:53:12;;;;;;;6.68;1.58;;;;;;;;;;5054066;27;97373;-75
2021/12/02 01:55:41;;;;;;;8.85;1.60;;;;;;;;;;5053973;27;95505;-75
2021/12/02 01:58:13;;;;;;;8.30;1.58;;;;;;;;;;5057318;27;96818;-74
2021/12/02 02:00:44;;;;;;;10.25;1.80;;;;;;;;;;5054475;27;95190;-74
2021/12/02 02:03:13;;;;;;;5.47;1.20;;;;;;;;;;5054778;27;96772;-75
2021/12/02 02:05:39;;;;;;;5.07;1.30;;;;;;;;;;5054109;27;97313;-74
2021/12/02 02:08:10;;;;;;;5.85;1.40;;;;;;;;;;5053136;27;95331;-75
2021/12/02 02:10:38;;;;;;;3.50;1.23;;;;;;;;;;5054357;27;96893;-74
2021/12/02 02:13:07;;;;;;;9.40;1.40;;;;;;;;;;5038239;27;97282;-74
2021/12/02 02:15:34;;;;;;;6.05;1.35;;;;;;;;;;5053791;27;95300;-74
2021/12/02 02:23:28;;;;;;;4.03;1.30;;;;;;;;;;5034144;27;96735;-74
2021/12/02 02:25:55;;;;;;;3.88;1.20;;;;;;;;;;5042941;27;97388;-74
2021/12/02 02:28:21;;;;;;;6.30;1.25;;;;;;;;;;5053188;27;95636;-74
2021/12/02 02:30:48;;;;;;;3.58;1.20;;;;;;;;;;5054373;27;96766;-75
2021/12/02 02:33:17;;;;;;;5.00;1.30;;;;;;;;;;5053728;27;97297;-74
2021/12/02 02:35:45;;;;;;;4.10;1.35;;;;;;;;;;5052993;27;95259;-75
2021/12/02 02:38:13;;;;;;;2.63;1.30;;;;;;;;;;5053641;27;96713;-75
2021/12/02 02:40:41;;;;;;;4.43;1.20;;;;;;;;;;5053608;27;97684;-76
2021/12/02 02:43:09;;;;;;;3.50;1.20;;;;;;;;;;5056313;27;95164;-75
2021/12/02 02:45:36;;;;;;;6.07;1.10;;;;;;;;;;5039426;27;96067;-74
2021/12/02 02:48:03;;;;;;;7.53;1.13;;;;;;;;;;5053799;27;95285;-75
2021/12/02 02:50:30;;;;;;;4.55;1.17;;;;;;;;;;5052931;27;96884;-75
2021/12/02 02:53:02;;;;;;;7.43;1.30;;;;;;;;;;5052846;27;97298;-75
2021/12/02 02:55:28;;;;;;;5.60;1.30;;;;;;;;;;5053816;27;95158;-75
2021/12/02 02:58:25;;;;;;;4.70;1.15;;;;;;;;;;5041113;27;97124;-75
2021/12/02 03:00:57;;;;;;;9.23;1.30;;;;;;;;;;5053232;27;97487;-75
2021/12/02 03:06:12;;;;;;;9.18;1.65;;;;;;;;;;5053470;27;97294;-74
2021/12/02 03:08:49;;;;;;;4.38;1.20;;;;;;;;;;5052904;27;95250;-75
2021/12/02 03:11:18;;;;;;;14.75;1.98;;;;;;;;;;5045116;27;96910;-75
2021/12/02 03:13:50;;;;;;;7.43;1.50;;;;;;;;;;5052310;27;97616;-74
2021/12/02 03:19:02;;;;;;;7.03;1.40;;;;;;;;;;5052230;27;96838;-74
2021/12/02 03:21:29;;;;;;;7.55;1.38;;;;;;;;;;5052999;27;96148;-75
2021/12/02 03:23:59;;;;;;;7.03;1.25;;;;;;;;;;5053289;27;95200;-73
2021/12/02 03:26:26;;;;;;;10.93;1.60;;;;;;;;;;5055607;27;96792;-75
2021/12/02 03:28:53;;;;;;;11.98;1.35;;;;;;;;;;5052618;27;95298;-74
2021/12/02 03:31:20;;;;;;;4.00;1.10;;;;;;;;;;5052383;27;96808;-74
2021/12/02 03:33:47;;;;;;;11.50;1.30;;;;;;;;;;5052924;27;97659;-74
2021/12/02 03:36:14;;;;;;;7.53;1.58;;;;;;;;;;5053199;27;95299;-75
2021/12/02 03:38:41;;;;;;;5.60;1.30;;;;;;;;;;5052347;27;97030;-75
2021/12/02 03:41:07;;;;;;;8.65;1.88;;;;;;;;;;5053212;27;97116;-74
2021/12/02 03:43:34;;;;;;;17.73;1.90;;;;;;;;;;5053496;27;95549;-74
2021/12/02 03:46:00;;;;;;;8.90;1.95;;;;;;;;;;5052968;27;96723;-74
2021/12/02 03:48:27;;;;;;;15.20;2.00;;;;;;;;;;5054887;27;97618;-75
2021/12/02 03:50:53;;;;;;;14.65;1.88;;;;;;;;;;5052209;27;96868;-75
2021/12/02 03:53:19;;;;;;;7.97;1.45;;;;;;;;;;5051574;27;97321;-75
2021/12/02 03:55:47;;;;;;;8.63;1.60;;;;;;;;;;5052915;27;95378;-76
2021/12/02 03:58:13;;;;;;;8.73;1.58;;;;;;;;;;5051849;27;96835;-76
2021/12/02 04:00:40;;;;;;;11.35;1.70;;;;;;;;;;5052318;27;97381;-76
2021/12/02 04:03:06;;;;;;;7.63;1.40;;;;;;;;;;5052441;27;94986;-73
2021/12/02 04:05:32;;;;;;;7.15;1.48;;;;;;;;;;5052985;27;95649;-74
2021/12/02 04:07:59;;;;;;;9.35;1.63;;;;;;;;;;5050026;27;97280;-75
2021/12/02 04:10:26;;;;;;;4.32;1.42;;;;;;;;;;5056037;27;95392;-76
2021/12/02 04:13:06;;;;;;;7.95;1.80;;;;;;;;;;5052691;27;97321;-76
2021/12/02 04:15:39;;;;;;;5.22;1.80;;;;;;;;;;5052414;27;95107;-75
2021/12/02 04:18:06;;;;;;;9.50;1.98;;;;;;;;;;5051110;27;96860;-75
2021/12/02 04:20:32;;;;;;;11.00;1.60;;;;;;;;;;5052232;27;97456;-73
2021/12/02 04:22:59;;;;;;;9.20;1.50;;;;;;;;;;5052579;27;95398;-73
2021/12/02 04:25:26;;;;;;;10.02;1.30;;;;;;;;;;5052241;27;96922;-73
2021/12/02 04:27:52;;;;;;;8.90;1.25;;;;;;;;;;5050846;27;97301;-73
2021/12/02 04:30:20;;;;;;;12.05;1.40;;;;;;;;;;5052184;27;95264;-74
2021/12/02 04:32:47;;;;;;;10.52;1.48;;;;;;;;;;5055503;27;95640;-75
2021/12/02 04:35:14;;;;;;;3.58;1.00;;;;;;;;;;5051682;27;95294;-75
2021/12/02 04:37:43;;;;;;;6.75;1.10;;;;;;;;;;5051684;27;96874;-76
2021/12/02 04:40:11;;;;;;;8.07;1.30;;;;;;;;;;5052031;27;97411;-75
2021/12/02 04:42:37;;;;;;;8.65;1.50;;;;;;;;;;5051209;27;95463;-76
2021/12/02 04:45:04;;;;;;;8.52;1.40;;;;;;;;;;5052289;27;96779;-75
2021/12/02 04:47:33;;;;;;;7.32;1.65;;;;;;;;;;5052348;27;96154;-75
2021/12/02 04:49:59;;;;;;;4.25;1.17;;;;;;;;;;5051161;27;95300;-75
2021/12/02 04:52:25;;;;;;;12.18;1.55;;;;;;;;;;5052167;27;96734;-74
2021/12/02 04:54:52;;;;;;;6.65;1.65;;;;;;;;;;5053838;27;95339;-74
2021/12/02 04:57:18;;;;;;;1.38;0.88;;;;;;;;;;5051546;27;96762;-75
2021/12/02 04:59:45;;;;;;;6.53;1.17;;;;;;;;;;5051463;27;97085;-73
2021/12/02 05:02:11;;;;;;;5.65;1.30;;;;;;;;;;5051931;27;95253;-76
2021/12/02 05:04:38;;;;;;;3.85;0.90;;;;;;;;;;5051578;27;96796;-75
2021/12/02 05:07:04;;;;;;;3.97;0.93;;;;;;;;;;5052040;27;97402;-73
2021/12/02 05:09:30;;;;;;;6.28;1.20;;;;;;;;;;5050685;27;95351;-74
2021/12/02 05:11:57;;;;;;;5.25;1.00;;;;;;;;;;5051551;27;97022;-75
2021/12/02 05:14:23;;;;;;;4.63;1.02;;;;;;;;;;5054888;27;97482;-74
2021/12/02 05:16:49;;;;;;;5.93;1.10;;;;;;;;;;5054435;27;96749;-75
2021/12/02 05:19:16;;;;;;;7.25;1.30;;;;;;;;;;5052890;27;97841;-75
2021/12/02 05:21:42;;;;;;;3.75;1.15;;;;;;;;;;5054117;27;95256;-73
2021/12/02 05:24:08;;;;;;;4.85;1.13;;;;;;;;;;5055064;27;96931;-74
2021/12/02 05:26:35;;;;;;;2.05;0.90;;;;;;;;;;5055512;27;97328;-73
2021/12/02 05:29:05;;;;;;;3.05;1.00;;;;;;;;;;5054096;27;95314;-75
2021/12/02 05:31:32;;;;;;;4.57;1.02;;;;;;;;;;5053836;27;96237;-75
2021/12/02 05:33:59;;;;;;;5.57;1.10;;;;;;;;;;5053057;27;97305;-75
2021/12/02 05:36:25;;;;;;;7.55;1.48;;;;;;;;;;5056407;27;96268;-75
2021/12/02 05:38:51;;;;;;;7.22;1.10;;;;;;;;;;5054088;27;97633;-75
2021/12/02 05:41:18;;;;;;;3.85;1.20;;;;;;;;;;5054582;27;95336;-74
2021/12/02 05:43:45;;;;;;;4.43;0.98;;;;;;;;;;5048194;27;97237;-73
2021/12/02 05:46:11;;;;;;;7.13;1.50;;;;;;;;;;5068590;27;97248;-75
2021/12/02 05:48:40;;;;;;;11.07;1.55;;;;;;;;;;5051521;27;96030;-76
2021/12/02 05:51:07;;;;;;;3.92;1.30;;;;;;;;;;5056049;27;97126;-75
2021/12/02 05:53:33;;;;;;;4.63;1.20;;;;;;;;;;5053842;27;97913;-76
2021/12/02 05:55:59;;;;;;;7.57;1.35;;;;;;;;;;5053412;27;95268;-75
2021/12/02 05:58:28;;;;;;;6.40;1.45;;;;;;;;;;5053923;27;96788;-76
2021/12/02 06:00:54;;;;;;;4.20;1.20;;;;;;;;;;5052347;27;95285;-76
2021/12/02 06:03:20;;;;;;;7.13;1.20;;;;;;;;;;5054439;27;97055;-76
2021/12/02 06:05:50;;;;;;;6.72;1.40;;;;;;;;;;5039569;27;97133;-74
2021/12/02 06:08:17;;;;;;;5.90;1.45;;;;;;;;;;5053001;27;96606;-76
2021/12/02 06:10:43;;;;;;;5.03;1.40;;;;;;;;;;5054443;27;97296;-75
2021/12/02 06:13:11;;;;;;;6.60;1.30;;;;;;;;;;5053481;27;97257;-75
2021/12/02 06:15:37;;;;;;;4.78;1.23;;;;;;;;;;5053722;27;96679;-75
2021/12/02 06:18:03;;;;;;;4.75;1.25;;;;;;;;;;5053903;27;97222;-75
2021/12/02 06:20:30;;;;;;;9.13;1.77;;;;;;;;;;5056320;27;97929;-74
2021/12/02 06:22:57;;;;;;;12.90;1.83;;;;;;;;;;5054525;27;97039;-76
2021/12/02 06:27:52;;;;;;;6.97;1.52;;;;;;;;;;5053804;27;96625;-74
2021/12/02 06:30:19;;;;;;;6.82;1.75;;;;;;;;;;5052077;27;97272;-73
2021/12/02 06:32:45;;;;;;;12.73;1.95;;;;;;;;;;5053506;27;97290;-73
2021/12/02 06:35:12;;;;;;;7.22;1.60;;;;;;;;;;5053619;27;95342;-73
2021/12/02 06:37:39;;;;;;;5.32;1.63;;;;;;;;;;5053923;27;96873;-72
2021/12/02 06:40:06;;;;;;;9.18;1.88;;;;;;;;;;5053590;27;97470;-72
2021/12/02 06:42:32;;;;;;;7.55;1.83;;;;;;;;;;5056196;27;95253;-73
2021/12/02 06:44:59;;;;;;;6.78;1.55;;;;;;;;;;5052838;27;97358;-73
2021/12/02 06:47:35;;;;;;;8.23;1.50;;;;;;;;;;5053551;27;96626;-72
2021/12/02 06:50:03;;;;;;;11.90;1.85;;;;;;;;;;5053607;27;96880;-72
2021/12/02 06:52:30;;;;;;;11.77;1.70;;;;;;;;;;5052288;27;97151;-73
2021/12/02 06:54:57;;;;;;;5.97;1.48;;;;;;;;;;5053876;27;95360;-74
2021/12/02 06:57:23;;;;;;;9.20;1.60;;;;;;;;;;5052578;27;96836;-73
2021/12/02 06:59:50;;;;;;;9.48;1.95;;;;;;;;;;5052567;27;97465;-73
2021/12/02 07:02:18;;;;;;;7.05;1.90;;;;;;;;;;5055994;27;95775;-72
2021/12/02 07:04:46;;;;;;;6.50;1.70;;;;;;;;;;5053119;27;97552;-73
2021/12/02 07:07:12;;;;;;;8.68;2.20;;;;;;;;;;5053094;27;95302;-72
2021/12/02 07:09:39;;;;;;;8.65;2.13;;;;;;;;;;5050864;27;96844;-72
2021/12/02 07:12:05;;;;;;;8.43;1.80;;;;;;;;;;5050916;27;97504;-72
2021/12/02 07:14:32;;;;;;;9.85;2.47;;;;;;;;;;5052496;27;95850;-72
2021/12/02 07:16:58;;;;;;;10.25;2.35;;;;;;;;;;5053040;27;96871;-72
2021/12/02 07:19:25;;;;;;;9.60;2.40;;;;;;;;;;5052883;27;97855;-72
2021/12/02 07:21:51;;;;;;;12.60;2.10;;;;;;;;;;5052629;27;95646;-72
2021/12/02 07:24:18;;;;;;;9.63;2.30;;;;;;;;;;5054264;27;97168;-73
2021/12/02 07:27:05;;;;;;;10.00;2.60;;;;;;;;;;5051931;27;95058;-72
2021/12/02 07:29:32;;;;;;;13.32;3.45;;;;;;;;;;5053181;27;96787;-73
2021/12/02 07:32:02;;;;;;;14.77;3.08;;;;;;;;;;5052397;27;97425;-73
2021/12/02 07:34:32;;;;;;;19.85;3.58;;;;;;;;;;5051843;27;95473;-73
2021/12/02 07:36:58;;;;;;;13.95;2.78;;;;;;;;;;5053293;27;96841;-73
2021/12/02 07:39:25;;;;;;;7.00;2.40;;;;;;;;;;5047839;27;97375;-73
2021/12/02 07:41:52;;;;;;;5.82;1.80;;;;;;;;;;5056150;27;95316;-73
2021/12/02 07:44:19;;;;;;;6.15;2.30;;;;;;;;;;5052537;27;97008;-73
2021/12/02 07:46:46;;;;;;;10.32;1.70;;;;;;;;;;5036134;27;96616;-73
2021/12/02 07:49:13;;;;;;;7.25;2.00;;;;;;;;;;5046311;27;96972;-74
2021/12/02 07:51:42;;;;;;;15.10;2.53;;;;;;;;;;5060164;27;97398;-74
2021/12/02 07:54:08;;;;;;;6.10;1.60;;;;;;;;;;5060588;27;95479;-73
2021/12/02 07:56:35;;;;;;;6.40;1.92;;;;;;;;;;5053332;27;96800;-73
2021/12/02 07:59:03;;;;;;;8.55;1.67;;;;;;;;;;5050998;27;97272;-73
2021/12/02 16:07:33;;;;;;;10.07;2.70;;;;;;;;;;5105115;27;95269;-73
2021/12/02 16:12:41;;;;;;;11.68;3.15;;;;;;;;;;5086753;27;95408;-73
2021/12/02 16:15:09;;;;;;;17.17;2.80;;;;;;;;;;5088479;27;96923;-74
2021/12/02 16:17:36;;;;;;;13.35;2.72;;;;;;;;;;5086829;27;97370;-73
2021/12/02 16:20:04;;;;;;;15.65;4.60;;;;;;;;;;5088225;27;95254;-73
2021/12/02 16:22:35;;;;;;;21.73;4.95;;;;;;;;;;5089822;27;97126;-73
2021/12/02 16:25:03;;;;;;;10.52;4.10;;;;;;;;;;5068995;27;96536;-73
2021/12/02 16:27:30;;;;;;;10.07;4.35;;;;;;;;;;5090063;27;95743;-74
2021/12/02 16:29:57;;;;;;;12.15;4.30;;;;;;;;;;5086788;27;97348;-73
2021/12/02 16:32:25;;;;;;;16.17;5.00;;;;;;;;;;5087657;27;95236;-73
2021/12/02 16:34:51;;;;;;;11.77;4.63;;;;;;;;;;5076618;27;96583;-79
2021/12/02 16:37:18;;;;;;;63.08;26.45;;;;;;;;;;5086973;27;97285;-73
2021/12/02 16:39:58;;;;;;;63.65;33.78;;;;;;;;;;5067875;27;97289;-74
2021/12/02 16:42:24;;;;;;;55.88;33.08;;;;;;;;;;5087587;27;96666;-73
2021/12/02 16:44:51;;;;;;;36.08;20.75;;;;;;;;;;5087344;27;97367;-73
2021/12/02 16:47:17;;;;;;;13.93;5.88;;;;;;;;;;5087477;27;95333;-73
2021/12/02 16:49:44;;;;;;;28.05;16.58;;;;;;;;;;5091179;27;96727;-73
2021/12/02 16:52:11;;;;;;;27.27;14.20;;;;;;;;;;5087342;27;96192;-73
2021/12/02 16:54:37;;;;;;;22.23;9.45;;;;;;;;;;5069017;27;96761;-73
2021/12/02 16:57:04;;;;;;;12.95;7.38;;;;;;;;;;5088032;27;97407;-72
2021/12/02 16:59:30;;;;;;;14.50;4.03;;;;;;;;;;5088989;27;95228;-73
2021/12/02 17:01:56;;;;;;;12.73;5.40;;;;;;;;;;5087464;27;95722;-73
2021/12/02 17:04:23;;;;;;;15.32;3.88;;;;;;;;;;5087907;27;97359;-73
2021/12/02 17:06:50;;;;;;;12.13;5.10;;;;;;;;;;5087510;27;95253;-73
2021/12/02 17:09:16;;;;;;;12.27;4.60;;;;;;;;;;5069834;27;96821;-73
2021/12/02 17:11:42;;;;;;;14.73;4.80;;;;;;;;;;5091239;27;97179;-73
2021/12/02 17:14:09;;;;;;;15.45;4.68;;;;;;;;;;5087068;27;96869;-73
2021/12/02 17:16:36;;;;;;;11.73;4.60;;;;;;;;;;5085005;27;97680;-72
2021/12/02 17:19:06;;;;;;;14.00;5.90;;;;;;;;;;5073234;27;95837;-73
2021/12/02 17:21:33;;;;;;;13.43;5.20;;;;;;;;;;5074101;27;96855;-72
2021/12/02 17:23:59;;;;;;;14.05;7.45;;;;;;;;;;5056319;27;97817;-73
2021/12/02 17:26:25;;;;;;;14.48;5.75;;;;;;;;;;5074596;27;95428;-81
2021/12/02 17:28:52;;;;;;;19.27;8.27;;;;;;;;;;5073807;27;97202;-73
2021/12/02 17:31:20;;;;;;;16.00;7.53;;;;;;;;;;5074353;27;96479;-72
2021/12/02 17:33:48;;;;;;;16.60;8.07;;;;;;;;;;5078439;27;95932;-73
2021/12/02 17:36:14;;;;;;;15.55;7.72;;;;;;;;;;5073431;27;97891;-73
2021/12/02 17:38:41;;;;;;;16.05;6.20;;;;;;;;;;5073700;27;95390;-73
2021/12/02 17:41:07;;;;;;;14.82;7.22;;;;;;;;;;5075148;27;96808;-73
2021/12/02 17:43:35;;;;;;;18.00;8.55;;;;;;;;;;5074148;27;97443;-72
2021/12/02 17:46:01;;;;;;;13.70;7.43;;;;;;;;;;5075147;27;95318;-73
2021/12/02 17:48:30;;;;;;;19.73;11.32;;;;;;;;;;5074132;27;97090;-73
2021/12/02 17:50:58;;;;;;;17.20;8.43;;;;;;;;;;5073028;27;97439;-73
2021/12/02 17:53:26;;;;;;;14.93;6.55;;;;;;;;;;5074610;27;95270;-73
2021/12/02 17:55:56;;;;;;;18.00;7.68;;;;;;;;;;5077422;27;97013;-73
2021/12/02 17:58:22;;;;;;;12.50;6.60;;;;;;;;;;5074030;27;95350;-73
2021/12/02 18:00:49;;;;;;;14.60;7.30;;;;;;;;;;5074530;27;96809;-73
2021/12/02 18:03:15;;;;;;;24.35;9.13;;;;;;;;;;5073485;27;97469;-73
2021/12/02 18:05:41;;;;;;;17.58;8.48;;;;;;;;;;5055406;27;95233;-73
2021/12/02 18:08:08;;;;;;;17.73;8.70;;;;;;;;;;5056377;27;96826;-73
2021/12/02 18:10:34;;;;;;;16.60;8.45;;;;;;;;;;5073357;27;97303;-72
2021/12/02 18:13:00;;;;;;;17.75;7.93;;;;;;;;;;5074309;27;95349;-74
2021/12/02 18:15:29;;;;;;;17.05;6.85;;;;;;;;;;5074600;27;96866;-74
2021/12/02 18:17:55;;;;;;;12.23;5.65;;;;;;;;;;5076041;27;95986;-73
2021/12/02 18:20:22;;;;;;;15.63;5.85;;;;;;;;;;5073057;27;96715;-73
2021/12/02 18:22:49;;;;;;;12.63;5.30;;;;;;;;;;5071708;27;97740;-73
2021/12/02 18:25:17;;;;;;;11.00;5.00;;;;;;;;;;5068772;27;95250;-73
2021/12/02 18:27:44;;;;;;;11.32;4.97;;;;;;;;;;5072039;27;97139;-74
2021/12/02 18:30:10;;;;;;;14.00;5.78;;;;;;;;;;5072444;27;97005;-74
2021/12/02 18:32:37;;;;;;;12.65;5.40;;;;;;;;;;5072830;27;96029;-75
2021/12/02 18:35:04;;;;;;;8.30;4.55;;;;;;;;;;5074033;27;96779;-73
2021/12/02 18:37:30;;;;;;;16.20;4.18;;;;;;;;;;5075795;27;97059;-74
2021/12/02 18:39:57;;;;;;;13.50;4.15;;;;;;;;;;5054188;27;96725;-74
2021/12/02 18:42:25;;;;;;;11.13;3.70;;;;;;;;;;5073700;27;97717;-73
2021/12/02 18:44:52;;;;;;;9.88;4.68;;;;;;;;;;5073739;27;95285;-73
2021/12/02 18:47:19;;;;;;;9.57;4.65;;;;;;;;;;5071604;27;96904;-74
2021/12/02 18:49:47;;;;;;;12.75;4.38;;;;;;;;;;5072623;27;97455;-73
2021/12/02 18:52:13;;;;;;;13.00;5.10;;;;;;;;;;5071960;27;95409;-74
2021/12/02 18:54:40;;;;;;;10.93;4.18;;;;;;;;;;5072931;27;96808;-74
2021/12/02 18:57:07;;;;;;;12.48;4.22;;;;;;;;;;5072355;27;97402;-75
2021/12/02 18:59:37;;;;;;;11.88;4.10;;;;;;;;;;5051724;27;95371;-74
2021/12/02 19:02:04;;;;;;;15.73;4.30;;;;;;;;;;5072955;27;97305;-74
2021/12/02 19:04:30;;;;;;;8.93;3.55;;;;;;;;;;5072040;27;95219;-74
2021/12/02 19:07:05;;;;;;;7.43;3.83;;;;;;;;;;5070579;27;97160;-73
2021/12/02 19:28:20;;;;;;;12.95;4.63;;;;;;;;;;5064565;27;95800;-73
2021/12/02 19:30:47;;;;;;;7.28;3.97;;;;;;;;;;5071964;27;97217;-74
2021/12/02 19:33:13;;;;;;;9.73;3.78;;;;;;;;;;5073249;27;95214;-73
2021/12/02 19:35:40;;;;;;;18.45;10.55;;;;;;;;;;5073033;27;96768;-74
2021/12/02 19:38:06;;;;;;;18.95;11.13;;;;;;;;;;5071774;27;97452;-74
2021/12/02 19:40:35;;;;;;;18.10;11.07;;;;;;;;;;5071175;27;95198;-74
2021/12/02 19:43:03;;;;;;;15.30;8.93;;;;;;;;;;5071916;27;96756;-74
2021/12/02 19:45:34;;;;;;;18.88;9.85;;;;;;;;;;5076299;27;97563;-73
2021/12/02 19:48:01;;;;;;;16.25;8.32;;;;;;;;;;5071731;27;96759;-74
2021/12/02 19:50:28;;;;;;;10.77;6.90;;;;;;;;;;5071086;27;97356;-73
2021/12/02 19:52:54;;;;;;;15.73;6.55;;;;;;;;;;5072123;27;96995;-74
2021/12/02 19:55:20;;;;;;;15.82;7.28;;;;;;;;;;5072403;27;96724;-73
2021/12/02 19:57:52;;;;;;;11.27;6.93;;;;;;;;;;5067957;27;97379;-74
2021/12/02 20:00:19;;;;;;;13.32;5.75;;;;;;;;;;5071005;27;96357;-74
2021/12/02 20:02:46;;;;;;;17.17;6.82;;;;;;;;;;5071808;27;97044;-73
2021/12/02 20:05:13;;;;;;;18.42;7.85;;;;;;;;;;5070488;27;98051;-74
2021/12/02 20:07:39;;;;;;;11.98;6.95;;;;;;;;;;5074944;27;95170;-74
2021/12/02 20:10:07;;;;;;;16.17;6.93;;;;;;;;;;5071556;27;97405;-75
2021/12/02 20:12:35;;;;;;;16.60;6.97;;;;;;;;;;5055233;27;95480;-73
2021/12/02 20:15:02;;;;;;;11.30;5.53;;;;;;;;;;5071655;27;98203;-74
2021/12/02 20:17:31;;;;;;;17.10;6.82;;;;;;;;;;5070596;27;96935;-74
2021/12/02 20:20:05;;;;;;;11.55;5.75;;;;;;;;;;5071005;27;95368;-73
2021/12/02 20:22:32;;;;;;;12.68;5.70;;;;;;;;;;5054228;27;96930;-73
2021/12/02 20:24:58;;;;;;;18.58;5.65;;;;;;;;;;5070818;27;97099;-73
2021/12/02 20:27:25;;;;;;;16.10;5.95;;;;;;;;;;5075159;27;95643;-73
2021/12/02 20:29:52;;;;;;;13.50;5.78;;;;;;;;;;5071009;27;97542;-74
2021/12/02 20:32:18;;;;;;;16.65;7.28;;;;;;;;;;5050641;27;95349;-73
2021/12/02 20:34:45;;;;;;;14.45;7.28;;;;;;;;;;5051273;27;96837;-73
2021/12/02 20:37:12;;;;;;;17.33;7.28;;;;;;;;;;5066873;27;97608;-74
2021/12/02 20:39:38;;;;;;;21.85;8.95;;;;;;;;;;5070487;27;95317;-74
2021/12/02 20:42:05;;;;;;;16.70;7.50;;;;;;;;;;5072342;27;97182;-74
2021/12/02 20:44:38;;;;;;;21.92;8.10;;;;;;;;;;5053554;27;97411;-74
2021/12/02 20:47:15;;;;;;;16.17;8.32;;;;;;;;;;5071551;27;96105;-74
2021/12/02 20:49:53;;;;;;;17.48;7.47;;;;;;;;;;5073526;27;96804;-74
2021/12/02 20:52:21;;;;;;;19.67;7.35;;;;;;;;;;5071620;27;96243;-74
2021/12/02 20:54:48;;;;;;;17.42;7.30;;;;;;;;;;5075072;27;96925;-74
2021/12/02 20:57:15;;;;;;;19.65;7.75;;;;;;;;;;5075294;27;97755;-73
2021/12/02 20:59:43;;;;;;;13.48;7.22;;;;;;;;;;5074087;27;96968;-73
2021/12/02 21:02:13;;;;;;;19.02;8.07;;;;;;;;;;5074513;27;96780;-73
2021/12/02 21:04:40;;;;;;;22.50;10.00;;;;;;;;;;5074913;27;97003;-72
2021/12/02 21:07:07;;;;;;;23.92;10.85;;;;;;;;;;5074472;27;95269;-74
2021/12/02 21:09:35;;;;;;;26.15;10.40;;;;;;;;;;5075108;27;96836;-73
2021/12/02 21:12:03;;;;;;;19.80;9.75;;;;;;;;;;5078568;27;97424;-74
2021/12/02 21:14:33;;;;;;;24.67;11.13;;;;;;;;;;5074792;27;97084;-74
2021/12/02 21:16:59;;;;;;;19.65;11.27;;;;;;;;;;5074917;27;97294;-73
2021/12/02 21:19:26;;;;;;;19.80;9.10;;;;;;;;;;5055898;27;96001;-74
2021/12/02 21:21:52;;;;;;;28.55;9.98;;;;;;;;;;5075227;27;97321;-74
2021/12/02 21:24:19;;;;;;;20.30;8.60;;;;;;;;;;5074980;27;97396;-74
2021/12/02 21:26:45;;;;;;;19.30;8.98;;;;;;;;;;5075241;27;95323;-73
2021/12/02 21:29:11;;;;;;;16.08;8.02;;;;;;;;;;5074570;27;96925;-73
2021/12/02 21:31:38;;;;;;;15.18;9.60;;;;;;;;;;5075429;27;97353;-73
2021/12/02 21:34:10;;;;;;;16.23;8.50;;;;;;;;;;5078976;27;95305;-73
2021/12/02 21:36:41;;;;;;;20.53;8.50;;;;;;;;;;5074940;27;97742;-74
2021/12/02 21:39:13;;;;;;;21.08;9.00;;;;;;;;;;5074808;27;95167;-74
2021/12/02 21:41:40;;;;;;;16.92;7.97;;;;;;;;;;5074637;27;96050;-74
2021/12/02 21:44:08;;;;;;;16.88;7.68;;;;;;;;;;5074627;27;97300;-74
2021/12/02 21:46:35;;;;;;;13.98;7.90;;;;;;;;;;5075186;27;95299;-74
2021/12/02 21:49:01;;;;;;;13.93;8.02;;;;;;;;;;5056697;27;96918;-73
2021/12/02 21:51:28;;;;;;;13.98;8.38;;;;;;;;;;5074368;27;97651;-74
2021/12/02 21:53:54;;;;;;;22.25;9.15;;;;;;;;;;5075115;27;95422;-74
2021/12/02 21:56:21;;;;;;;19.77;8.48;;;;;;;;;;5077028;27;96934;-74
2021/12/02 21:58:48;;;;;;;22.90;8.90;;;;;;;;;;5075105;27;95279;-73
2021/12/02 22:01:21;;;;;;;18.65;7.90;;;;;;;;;;5074314;27;96907;-73
2021/12/02 22:03:48;;;;;;;16.65;8.57;;;;;;;;;;5073390;27;97674;-73
2021/12/02 22:06:15;;;;;;;15.85;7.75;;;;;;;;;;5052816;27;95409;-73
2021/12/02 22:08:41;;;;;;;15.55;8.10;;;;;;;;;;5054238;27;96826;-73
2021/12/02 22:11:07;;;;;;;19.05;9.82;;;;;;;;;;5053078;27;97451;-74
2021/12/02 22:13:34;;;;;;;21.92;12.70;;;;;;;;;;5054583;27;95383;-73
2021/12/02 22:16:00;;;;;;;18.88;11.25;;;;;;;;;;5054349;27;96765;-73
2021/12/02 22:18:27;;;;;;;20.35;11.30;;;;;;;;;;5056155;27;97327;-74
2021/12/02 22:20:53;;;;;;;23.77;12.40;;;;;;;;;;5053360;27;97147;-73
2021/12/02 22:23:20;;;;;;;21.63;11.35;;;;;;;;;;5053395;27;97246;-74
2021/12/02 22:25:46;;;;;;;22.25;10.95;;;;;;;;;;5053850;27;95914;-74
2021/12/02 22:28:12;;;;;;;16.42;9.57;;;;;;;;;;5053427;27;96787;-73
2021/12/02 22:30:39;;;;;;;18.88;9.02;;;;;;;;;;5051818;27;97646;-73
2021/12/02 22:33:05;;;;;;;17.42;9.25;;;;;;;;;;5053814;27;95285;-74
2021/12/02 22:35:31;;;;;;;19.20;10.20;;;;;;;;;;5053095;27;97026;-74
2021/12/02 22:37:59;;;;;;;16.60;9.80;;;;;;;;;;5056049;27;97171;-73
2021/12/02 22:40:25;;;;;;;21.27;9.85;;;;;;;;;;5053574;27;96861;-74
2021/12/02 22:42:53;;;;;;;16.42;9.00;;;;;;;;;;5048302;27;97536;-74
2021/12/02 22:45:20;;;;;;;13.68;8.25;;;;;;;;;;5053621;27;95410;-74
2021/12/02 22:47:46;;;;;;;16.08;7.93;;;;;;;;;;5052780;27;97123;-74
2021/12/02 22:50:13;;;;;;;18.60;10.32;;;;;;;;;;5053530;27;97705;-73
2021/12/02 22:52:39;;;;;;;13.98;8.63;;;;;;;;;;5052859;27;95491;-73
2021/12/02 22:55:07;;;;;;;18.13;8.95;;;;;;;;;;5053193;27;97164;-74
2021/12/02 22:57:37;;;;;;;18.55;8.32;;;;;;;;;;5053341;27;97248;-74
2021/12/02 23:00:05;;;;;;;16.70;8.55;;;;;;;;;;5056770;27;95367;-74
2021/12/02 23:02:33;;;;;;;17.73;8.75;;;;;;;;;;5052209;27;97321;-73
2021/12/02 23:04:59;;;;;;;17.70;8.02;;;;;;;;;;5053943;27;95378;-73
2021/12/02 23:07:26;;;;;;;18.25;8.40;;;;;;;;;;5071887;27;98100;-74
2021/12/02 23:09:52;;;;;;;14.88;8.07;;;;;;;;;;5073797;27;97417;-74
2021/12/02 23:12:19;;;;;;;19.92;8.50;;;;;;;;;;5072988;27;95238;-74
2021/12/02 23:14:45;;;;;;;19.33;9.45;;;;;;;;;;5072669;27;96787;-73
2021/12/02 23:17:11;;;;;;;17.52;8.27;;;;;;;;;;5072785;27;97300;-74
2021/12/02 23:19:38;;;;;;;14.85;8.30;;;;;;;;;;5073810;27;95359;-74
2021/12/02 23:22:05;;;;;;;20.50;9.05;;;;;;;;;;5076012;27;96945;-74